createdAt,value
2022-07-29T00:01:04.709Z,1.10
2022-07-29T00:03:32.162Z,1.25
2022-07-29T00:05:59.235Z,1.30
2022-07-29T00:08:27.815Z,1.30
2022-07-29T00:10:59.608Z,1.38
2022-07-29T00:13:50.759Z,1.42
2022-07-29T00:16:18.138Z,1.10
2022-07-29T00:18:45.194Z,1.55
2022-07-29T00:21:12.114Z,1.15
2022-07-29T00:23:39.042Z,1.20
2022-07-29T00:26:06.064Z,1.30
2022-07-29T00:28:33.095Z,1.30
2022-07-29T00:31:00.335Z,1.40
2022-07-29T00:33:27.409Z,1.15
2022-07-29T00:35:54.268Z,1.40
2022-07-29T00:38:22.148Z,1.20
2022-07-29T00:40:49.084Z,1.23
2022-07-29T00:43:16.081Z,1.60
2022-07-29T00:45:43.573Z,2.15
2022-07-29T00:48:10.887Z,1.30
2022-07-29T00:50:38.517Z,1.20
2022-07-29T00:53:07.479Z,1.45
2022-07-29T00:55:34.803Z,1.35
2022-07-29T00:58:01.805Z,1.50
2022-07-29T01:00:29.648Z,1.63
2022-07-29T01:02:56.920Z,1.40
2022-07-29T01:05:50.070Z,1.40
2022-07-29T01:10:47.725Z,1.40
2022-07-29T01:13:15.878Z,1.30
2022-07-29T01:15:48.816Z,1.40
2022-07-29T01:18:21.985Z,1.30
2022-07-29T01:21:08.162Z,1.40
2022-07-29T01:23:49.255Z,1.30
2022-07-29T01:26:30.253Z,1.40
2022-07-29T01:29:07.519Z,1.90
2022-07-29T01:31:45.380Z,1.70
2022-07-29T01:34:48.959Z,1.38
2022-07-29T01:37:23.168Z,1.35
2022-07-29T01:39:51.755Z,1.30
2022-07-29T01:42:18.599Z,1.60
2022-07-29T01:45:05.741Z,1.50
2022-07-29T01:47:35.884Z,1.60
2022-07-29T01:50:05.039Z,1.35
2022-07-29T01:52:40.613Z,1.40
2022-07-29T01:55:16.402Z,1.50
2022-07-29T01:57:44.492Z,1.80
2022-07-29T02:00:11.866Z,1.70
2022-07-29T02:02:40.069Z,1.98
2022-07-29T02:05:09.223Z,1.63
2022-07-29T02:07:37.887Z,1.50
2022-07-29T02:10:05.459Z,1.42
2022-07-29T02:12:33.090Z,1.35
2022-07-29T02:15:01.766Z,1.40
2022-07-29T02:17:40.904Z,1.48
2022-07-29T02:20:08.989Z,1.40
2022-07-29T02:22:37.520Z,1.60
2022-07-29T02:25:05.516Z,1.63
2022-07-29T02:27:34.468Z,1.38
2022-07-29T02:30:02.465Z,1.52
2022-07-29T02:32:30.511Z,1.35
2022-07-29T02:34:59.457Z,1.40
2022-07-29T02:37:29.343Z,1.45
2022-07-29T02:39:56.667Z,1.45
2022-07-29T02:42:25.062Z,1.45
2022-07-29T02:44:52.647Z,1.40
2022-07-29T02:47:46.062Z,1.50
2022-07-29T02:50:12.876Z,1.52
2022-07-29T02:52:44.893Z,1.90
2022-07-29T02:55:17.706Z,1.73
2022-07-29T02:57:54.431Z,1.75
2022-07-29T03:00:24.744Z,1.70
2022-07-29T03:02:53.414Z,2.10
2022-07-29T03:05:21.149Z,2.50
2022-07-29T03:07:50.474Z,2.40
2022-07-29T03:10:17.518Z,2.50
2022-07-29T03:12:44.898Z,2.60
2022-07-29T03:15:12.100Z,2.65
2022-07-29T03:17:40.310Z,2.97
2022-07-29T03:20:08.617Z,2.60
2022-07-29T03:22:39.945Z,2.50
2022-07-29T03:27:33.559Z,2.50
2022-07-29T03:30:00.438Z,2.40
2022-07-29T03:32:27.311Z,2.53
2022-07-29T03:34:55.048Z,2.80
2022-07-29T03:37:21.921Z,2.75
2022-07-29T03:39:50.225Z,3.00
2022-07-29T03:42:17.479Z,3.00
2022-07-29T03:44:46.643Z,2.95
2022-07-29T03:47:14.721Z,3.22
2022-07-29T03:49:41.970Z,2.90
2022-07-29T03:52:09.118Z,2.47
2022-07-29T03:54:36.033Z,2.55
2022-07-29T03:57:03.624Z,2.80
2022-07-29T03:59:31.531Z,2.45
2022-07-29T04:01:59.060Z,2.63
2022-07-29T04:04:27.356Z,2.72
2022-07-29T04:06:55.709Z,2.88
2022-07-29T04:09:22.673Z,2.80
2022-07-29T04:12:02.171Z,2.78
2022-07-29T04:14:29.774Z,2.85
2022-07-29T04:16:56.961Z,2.95
2022-07-29T04:19:23.876Z,2.97
2022-07-29T04:21:51.160Z,2.80
2022-07-29T04:24:20.874Z,2.97
2022-07-29T04:26:48.229Z,2.83
2022-07-29T04:29:15.702Z,2.75
2022-07-29T04:31:42.908Z,2.85
2022-07-29T04:34:10.098Z,2.80
2022-07-29T04:36:37.162Z,3.00
2022-07-29T04:39:04.561Z,3.33
2022-07-29T04:41:33.163Z,2.83
2022-07-29T04:44:02.121Z,2.83
2022-07-29T04:46:29.196Z,3.03
2022-07-29T04:48:56.252Z,2.60
2022-07-29T04:51:23.551Z,2.72
2022-07-29T04:53:50.497Z,2.67
2022-07-29T04:56:17.349Z,3.13
2022-07-29T04:58:44.308Z,2.63
2022-07-29T05:01:11.292Z,2.88
2022-07-29T05:03:38.625Z,2.75
2022-07-29T05:06:05.591Z,3.05
2022-07-29T05:08:32.742Z,2.90
2022-07-29T05:11:11.449Z,2.72
2022-07-29T05:13:46.167Z,2.65
2022-07-29T05:16:14.812Z,2.47
2022-07-29T05:18:42.175Z,2.60
2022-07-29T05:21:09.193Z,2.28
2022-07-29T05:23:36.075Z,2.55
2022-07-29T05:26:02.958Z,2.25
2022-07-29T05:28:29.861Z,2.40
2022-07-29T05:30:57.294Z,2.40
2022-07-29T05:33:34.944Z,2.42
2022-07-29T05:36:06.657Z,2.35
2022-07-29T05:38:34.054Z,3.20
2022-07-29T05:41:01.207Z,2.97
2022-07-29T05:43:28.709Z,2.90
2022-07-29T05:45:55.890Z,2.70
2022-07-29T05:48:22.894Z,2.80
2022-07-29T05:50:50.006Z,2.75
2022-07-29T05:53:20.124Z,2.75
2022-07-29T05:55:48.108Z,2.90
2022-07-29T05:58:15.040Z,2.92
2022-07-29T06:00:42.406Z,2.75
2022-07-29T06:03:09.302Z,2.50
2022-07-29T06:05:36.364Z,3.00
2022-07-29T06:08:03.609Z,2.50
2022-07-29T06:10:30.639Z,2.42
2022-07-29T06:12:57.566Z,2.30
2022-07-29T06:15:24.726Z,2.58
2022-07-29T06:18:00.825Z,2.63
2022-07-29T06:20:31.301Z,2.35
2022-07-29T06:22:58.667Z,2.88
2022-07-29T06:25:25.534Z,2.58
2022-07-29T06:27:53.293Z,2.50
2022-07-29T06:30:20.186Z,2.30
2022-07-29T06:32:47.344Z,2.30
2022-07-29T06:38:00.976Z,2.42
2022-07-29T06:40:46.345Z,2.60
2022-07-29T06:43:13.171Z,2.47
2022-07-29T06:45:42.550Z,2.20
2022-07-29T06:48:10.249Z,2.40
2022-07-29T06:50:37.169Z,2.47
2022-07-29T06:53:04.729Z,2.38
2022-07-29T06:55:31.950Z,2.50
2022-07-29T06:57:58.864Z,2.42
2022-07-29T07:00:26.074Z,2.42
2022-07-29T07:02:53.008Z,2.28
2022-07-29T07:05:19.871Z,2.50
2022-07-29T07:07:46.702Z,2.65
2022-07-29T07:10:13.609Z,2.30
2022-07-29T07:12:40.456Z,2.72
2022-07-29T07:15:07.536Z,2.25
2022-07-29T07:17:34.567Z,2.30
2022-07-29T07:20:01.534Z,2.40
2022-07-29T07:22:28.384Z,2.22
2022-07-29T07:24:55.309Z,2.40
2022-07-29T07:27:22.161Z,2.20
2022-07-29T07:29:49.511Z,2.40
2022-07-29T07:32:17.582Z,2.00
2022-07-29T07:34:44.786Z,2.13
2022-07-29T07:37:11.725Z,1.92
2022-07-29T07:39:38.606Z,1.92
2022-07-29T07:42:05.634Z,2.15
2022-07-29T07:44:32.581Z,2.15
2022-07-29T07:47:03.874Z,1.98
2022-07-29T07:49:35.688Z,2.00
2022-07-29T07:52:02.607Z,2.15
2022-07-29T07:54:29.472Z,2.05
2022-07-29T07:56:56.358Z,2.08
2022-07-29T07:59:23.340Z,1.90
2022-07-29T08:01:56.350Z,1.75
2022-07-29T08:04:28.275Z,1.90
2022-07-29T08:06:56.833Z,1.83
2022-07-29T08:09:29.656Z,1.88
2022-07-29T08:11:58.050Z,1.80
2022-07-29T08:14:24.909Z,1.77
2022-07-29T08:16:52.605Z,1.80
2022-07-29T08:19:19.612Z,1.92
2022-07-29T08:21:46.847Z,2.25
2022-07-29T08:24:32.588Z,1.85
2022-07-29T08:26:59.573Z,1.60
2022-07-29T08:29:26.596Z,1.50
2022-07-29T08:31:53.733Z,1.50
2022-07-29T08:34:24.423Z,1.60
2022-07-29T08:36:54.750Z,1.50
2022-07-29T08:39:21.689Z,1.30
2022-07-29T08:41:56.747Z,1.30
2022-07-29T08:44:30.880Z,1.08
2022-07-29T08:46:58.264Z,1.40
2022-07-29T08:49:25.351Z,1.65
2022-07-29T08:51:52.728Z,1.20
2022-07-29T08:54:20.018Z,1.10
2022-07-29T08:56:50.517Z,1.20
2022-07-29T08:59:20.359Z,1.38
2022-07-29T09:01:49.665Z,1.50
2022-07-29T09:04:17.311Z,1.45
2022-07-29T09:06:45.695Z,1.60
2022-07-29T09:09:14.619Z,1.50
2022-07-29T09:11:42.121Z,1.33
2022-07-29T09:14:09.540Z,1.50
2022-07-29T09:16:53.000Z,1.30
2022-07-29T09:19:23.979Z,1.10
2022-07-29T09:22:00.412Z,1.30
2022-07-29T09:24:42.182Z,1.50
2022-07-29T09:27:18.697Z,1.70
2022-07-29T09:29:45.745Z,1.58
2022-07-29T09:32:13.112Z,1.60
2022-07-29T09:34:40.204Z,1.48
2022-07-29T09:37:07.161Z,1.60
2022-07-29T09:39:35.358Z,1.60
2022-07-29T09:42:04.427Z,1.42
2022-07-29T09:44:50.233Z,1.30
2022-07-29T09:47:19.135Z,1.23
2022-07-29T09:49:58.891Z,1.30
2022-07-29T09:52:26.568Z,1.20
2022-07-29T09:54:55.273Z,1.02
2022-07-29T09:57:27.238Z,1.20
2022-07-29T10:00:01.143Z,1.25
2022-07-29T10:04:54.806Z,1.20
2022-07-29T10:07:22.291Z,1.17
2022-07-29T10:09:56.237Z,1.20
2022-07-29T10:12:23.761Z,1.10
2022-07-29T10:14:51.498Z,1.38
2022-07-29T10:17:19.186Z,1.23
2022-07-29T10:19:46.264Z,1.40
2022-07-29T10:22:14.980Z,1.30
2022-07-29T10:24:42.150Z,1.42
2022-07-29T10:27:10.234Z,1.40
2022-07-29T10:29:37.522Z,1.55
2022-07-29T10:32:07.266Z,1.45
2022-07-29T10:34:43.141Z,1.30
2022-07-29T10:37:25.481Z,1.60
2022-07-29T10:40:23.346Z,1.33
2022-07-29T10:42:53.515Z,1.30
2022-07-29T10:45:21.194Z,1.30
2022-07-29T10:47:48.168Z,1.30
2022-07-29T10:50:17.376Z,1.30
2022-07-29T10:52:50.618Z,1.40
2022-07-29T10:55:39.451Z,1.20
2022-07-29T10:58:20.602Z,1.40
2022-07-29T11:00:49.683Z,1.20
2022-07-29T11:03:37.443Z,1.30
2022-07-29T11:06:08.586Z,1.30
2022-07-29T11:11:39.714Z,1.45
2022-07-29T11:14:11.199Z,1.25
2022-07-29T11:16:57.150Z,1.48
2022-07-29T11:19:30.094Z,1.30
2022-07-29T11:21:58.572Z,1.33
2022-07-29T11:24:35.733Z,1.40
2022-07-29T11:29:30.224Z,1.50
2022-07-29T11:32:08.967Z,1.25
2022-07-29T11:34:43.392Z,1.30
2022-07-29T11:37:14.191Z,1.40
2022-07-29T11:39:45.450Z,1.23
2022-07-29T11:48:05.349Z,1.50
2022-07-29T11:50:48.376Z,1.45
2022-07-29T11:53:16.196Z,1.60
2022-07-29T11:55:51.057Z,1.83
2022-07-29T11:58:26.231Z,1.85
2022-07-29T12:00:55.345Z,1.65
2022-07-29T12:06:21.083Z,1.80
2022-07-29T12:08:48.126Z,1.70
2022-07-29T12:11:20.534Z,1.40
2022-07-29T12:13:49.271Z,1.90
2022-07-29T12:16:16.631Z,1.55
2022-07-29T12:19:00.732Z,1.58
2022-07-29T12:21:29.824Z,1.75
2022-07-29T12:24:03.471Z,1.73
2022-07-29T12:26:35.909Z,1.80
2022-07-29T12:29:03.859Z,1.80
2022-07-29T12:40:05.030Z,1.60
2022-07-29T12:42:36.216Z,1.50
2022-07-29T12:45:03.871Z,1.90
2022-07-29T12:47:30.962Z,1.60
2022-07-29T12:50:12.212Z,1.73
2022-07-29T12:52:42.064Z,1.85
2022-07-29T12:55:09.784Z,1.80
2022-07-29T12:57:49.162Z,1.52
2022-07-29T13:00:23.437Z,1.70
2022-07-29T13:02:58.234Z,1.63
2022-07-29T13:05:39.452Z,2.00
2022-07-29T13:08:28.099Z,1.80
2022-07-29T13:10:55.932Z,1.67
2022-07-29T13:13:36.101Z,1.80
2022-07-29T13:16:12.123Z,1.77
2022-07-29T13:19:13.599Z,1.55
2022-07-29T13:21:43.451Z,1.75
2022-07-29T13:24:34.997Z,1.60
2022-07-29T13:27:36.841Z,1.70
2022-07-29T13:32:31.221Z,1.90
2022-07-29T13:34:58.936Z,1.50
2022-07-29T13:37:26.975Z,1.92
2022-07-29T13:39:55.163Z,1.80
2022-07-29T13:42:22.164Z,1.50
2022-07-29T13:44:51.830Z,1.70
2022-07-29T13:47:19.371Z,1.73
2022-07-29T13:49:46.484Z,1.65
2022-07-29T13:52:13.694Z,1.60
2022-07-29T13:54:42.615Z,1.90
2022-07-29T13:57:11.724Z,1.88
2022-07-29T13:59:39.347Z,1.75
2022-07-29T14:02:06.662Z,1.77
2022-07-29T14:04:34.546Z,1.73
2022-07-29T14:07:03.626Z,1.70
2022-07-29T14:09:41.271Z,1.80
2022-07-29T14:12:09.095Z,1.63
2022-07-29T14:14:37.625Z,1.63
2022-07-29T14:17:07.010Z,1.50
2022-07-29T14:19:36.757Z,1.58
2022-07-29T14:22:04.700Z,1.50
2022-07-29T14:24:32.347Z,1.70
2022-07-29T14:26:59.437Z,1.60
2022-07-29T14:29:37.560Z,1.48
2022-07-29T14:32:09.183Z,1.55
2022-07-29T14:34:37.334Z,1.50
2022-07-29T14:37:06.625Z,1.90
2022-07-29T14:39:36.106Z,1.80
2022-07-29T14:42:06.480Z,1.80
2022-07-29T14:44:33.385Z,1.80
2022-07-29T14:47:01.161Z,1.67
2022-07-29T14:49:35.467Z,2.00
2022-07-29T14:52:02.375Z,1.70
2022-07-29T14:54:29.305Z,1.60
2022-07-29T14:56:58.498Z,2.22
2022-07-29T14:59:26.711Z,1.73
2022-07-29T15:01:54.024Z,1.80
2022-07-29T15:04:41.051Z,1.80
2022-07-29T15:07:19.639Z,1.70
2022-07-29T15:09:51.081Z,2.00
2022-07-29T15:12:19.567Z,1.80
2022-07-29T15:14:46.720Z,1.90
2022-07-29T15:17:13.904Z,1.98
2022-07-29T15:19:45.027Z,1.63
2022-07-29T15:22:12.182Z,1.58
2022-07-29T15:24:40.170Z,1.52
2022-07-29T15:27:07.097Z,1.80
2022-07-29T15:29:34.044Z,1.95
2022-07-29T15:32:01.510Z,1.63
2022-07-29T15:34:28.873Z,1.52
2022-07-29T15:36:56.451Z,1.80
2022-07-29T15:39:23.573Z,1.67
2022-07-29T15:41:50.818Z,1.92
2022-07-29T15:44:18.039Z,2.00
2022-07-29T15:47:03.563Z,1.73
2022-07-29T15:49:47.402Z,1.80
2022-07-29T15:52:18.433Z,1.60
2022-07-29T15:54:45.897Z,1.70
2022-07-29T15:57:13.030Z,1.70
2022-07-29T15:59:40.197Z,1.70
2022-07-29T16:02:07.170Z,1.70
2022-07-29T16:04:34.162Z,1.60
2022-07-29T16:07:01.478Z,1.60
2022-07-29T16:09:29.105Z,1.83
2022-07-29T16:11:56.744Z,1.85
2022-07-29T16:14:23.859Z,1.65
2022-07-29T16:16:55.599Z,1.80
2022-07-29T16:19:23.300Z,1.70
2022-07-29T16:21:50.235Z,1.75
2022-07-29T16:24:17.307Z,2.08
2022-07-29T16:26:44.339Z,1.70
2022-07-29T16:29:12.594Z,1.83
2022-07-29T16:31:39.510Z,1.73
2022-07-29T16:34:06.454Z,1.70
2022-07-29T16:36:33.351Z,1.80
2022-07-29T16:39:00.283Z,1.70
2022-07-29T16:41:27.271Z,1.88
2022-07-29T16:43:55.363Z,1.70
2022-07-29T16:46:22.345Z,1.80
2022-07-29T16:48:51.380Z,1.70
2022-07-29T16:51:18.399Z,2.00
2022-07-29T16:53:45.641Z,2.00
2022-07-29T16:56:16.644Z,1.55
2022-07-29T16:58:44.204Z,1.95
2022-07-29T17:01:11.590Z,1.80
2022-07-29T17:04:01.362Z,1.55
2022-07-29T17:06:29.552Z,1.60
2022-07-29T17:08:57.179Z,1.60
2022-07-29T17:11:52.531Z,1.92
2022-07-29T17:14:11.188Z,1.90
2022-07-29T17:16:38.276Z,1.65
2022-07-29T17:19:05.328Z,1.70
2022-07-29T17:21:32.208Z,1.80
2022-07-29T17:23:59.503Z,1.75
2022-07-29T17:26:28.245Z,1.55
2022-07-29T17:28:55.446Z,1.52
2022-07-29T17:31:22.641Z,1.60
2022-07-29T17:33:49.802Z,1.73
2022-07-29T17:36:26.852Z,2.00
2022-07-29T17:41:21.629Z,1.95
2022-07-29T17:43:49.284Z,1.92
2022-07-29T17:46:16.702Z,1.70
2022-07-29T17:48:43.692Z,1.83
2022-07-29T17:51:10.708Z,1.80
2022-07-29T17:53:37.936Z,1.75
2022-07-29T17:56:05.006Z,1.60
2022-07-29T17:58:32.541Z,1.80
2022-07-29T18:00:59.581Z,1.65
2022-07-29T18:03:26.965Z,2.00
2022-07-29T18:05:54.168Z,1.73
2022-07-29T18:08:21.137Z,1.88
2022-07-29T18:10:48.170Z,1.70
2022-07-29T18:13:16.656Z,1.80
2022-07-29T18:15:45.268Z,2.10
2022-07-29T18:18:13.305Z,2.00
2022-07-29T18:20:40.475Z,1.90
2022-07-29T18:23:07.386Z,2.10
2022-07-29T18:25:34.298Z,1.80
2022-07-29T18:28:01.490Z,1.90
2022-07-29T18:30:29.418Z,1.90
2022-07-29T18:33:19.594Z,1.88
2022-07-29T18:35:44.373Z,2.10
2022-07-29T18:38:11.303Z,1.70
2022-07-29T18:40:40.142Z,1.80
2022-07-29T18:43:07.266Z,1.80
2022-07-29T18:45:34.496Z,1.60
2022-07-29T18:48:02.018Z,1.70
2022-07-29T18:50:29.947Z,1.77
2022-07-29T18:52:58.835Z,1.73
2022-07-29T18:55:26.119Z,1.90
2022-07-29T18:57:56.003Z,2.00
2022-07-29T19:00:24.364Z,2.20
2022-07-29T19:02:51.635Z,2.08
2022-07-29T19:05:19.192Z,2.30
2022-07-29T19:07:46.128Z,2.00
2022-07-29T19:10:13.647Z,2.35
2022-07-29T19:12:40.977Z,1.75
2022-07-29T19:15:08.418Z,1.92
2022-07-29T19:17:35.516Z,2.00
2022-07-29T19:20:02.492Z,1.80
2022-07-29T19:22:29.481Z,2.25
2022-07-29T19:24:56.413Z,2.10
2022-07-29T19:27:23.460Z,2.13
2022-07-29T19:29:50.347Z,1.80
2022-07-29T19:32:25.109Z,1.83
2022-07-29T19:35:11.030Z,2.00
2022-07-29T19:37:37.909Z,1.92
2022-07-29T19:40:07.879Z,2.00
2022-07-29T19:42:34.819Z,1.85
2022-07-29T19:45:01.703Z,1.63
2022-07-29T19:47:28.709Z,1.67
2022-07-29T19:49:55.837Z,1.70
2022-07-29T19:52:22.821Z,1.70
2022-07-29T19:54:57.182Z,2.03
2022-07-29T19:57:26.346Z,1.73
2022-07-29T19:59:53.377Z,2.13
2022-07-29T20:02:20.835Z,1.73
2022-07-29T20:04:47.724Z,2.00
2022-07-29T20:07:14.904Z,1.80
2022-07-29T20:09:42.567Z,1.90
2022-07-29T20:12:10.469Z,2.00
2022-07-29T20:14:40.908Z,1.90
2022-07-29T20:17:08.105Z,1.70
2022-07-29T20:19:37.492Z,1.70
2022-07-29T20:22:04.644Z,2.10
2022-07-29T20:24:34.874Z,1.80
2022-07-29T20:27:02.284Z,2.30
2022-07-29T20:29:29.578Z,1.90
2022-07-29T20:31:56.839Z,1.90
2022-07-29T20:34:23.911Z,2.08
2022-07-29T20:36:50.859Z,2.08
2022-07-29T20:39:18.015Z,2.00
2022-07-29T20:41:45.184Z,1.98
2022-07-29T20:44:12.096Z,2.17
2022-07-29T20:46:39.564Z,2.10
2022-07-29T20:49:06.600Z,1.95
2022-07-29T20:51:43.482Z,2.10
2022-07-29T20:54:11.219Z,2.05
2022-07-29T20:56:38.304Z,2.10
2022-07-29T20:59:05.303Z,1.90
2022-07-29T21:01:32.363Z,2.10
2022-07-29T21:04:00.467Z,2.00
2022-07-29T21:06:27.734Z,2.03
2022-07-29T21:08:57.918Z,1.90
2022-07-29T21:11:43.162Z,2.13
2022-07-29T21:14:38.173Z,2.28
2022-07-29T21:17:07.266Z,2.20
2022-07-29T21:19:34.596Z,2.00
2022-07-29T21:22:02.012Z,2.30
2022-07-29T21:24:29.277Z,1.95
2022-07-29T21:27:20.773Z,2.17
2022-07-29T21:29:48.627Z,2.20
2022-07-29T21:32:27.524Z,2.10
2022-07-29T21:34:57.696Z,2.08
2022-07-29T21:37:24.934Z,2.10
2022-07-29T21:39:51.845Z,2.22
2022-07-29T21:42:18.845Z,2.60
2022-07-29T21:44:45.768Z,2.00
2022-07-29T21:47:12.707Z,2.67
2022-07-29T21:49:39.542Z,2.30
2022-07-29T21:52:08.070Z,2.55
2022-07-29T21:54:35.900Z,2.20
2022-07-29T21:57:03.456Z,2.17
2022-07-29T21:59:30.649Z,2.05
2022-07-29T22:02:00.908Z,2.20
2022-07-29T22:04:31.360Z,2.30
2022-07-29T22:06:58.770Z,2.42
2022-07-29T22:09:26.031Z,2.25
2022-07-29T22:11:53.513Z,2.28
2022-07-29T22:14:21.106Z,2.30
2022-07-29T22:16:48.333Z,2.38
2022-07-29T22:19:15.438Z,2.78
2022-07-29T22:21:42.685Z,2.60
2022-07-29T22:24:10.398Z,2.70
2022-07-29T22:26:38.555Z,2.60
2022-07-29T22:29:05.702Z,2.63
2022-07-29T22:31:32.555Z,2.40
2022-07-29T22:33:59.477Z,2.47
2022-07-29T22:36:27.008Z,2.60
2022-07-29T22:38:53.863Z,2.72
2022-07-29T22:41:20.981Z,3.00
2022-07-29T22:43:47.863Z,2.97
2022-07-29T22:46:14.875Z,3.10
2022-07-29T22:48:41.901Z,3.15
2022-07-29T22:51:09.194Z,3.20
2022-07-29T22:53:36.979Z,3.08
2022-07-29T22:56:04.129Z,3.60
2022-07-29T22:58:30.981Z,3.50
2022-07-29T23:00:58.104Z,3.65
2022-07-29T23:03:25.186Z,4.00
2022-07-29T23:05:52.074Z,3.67
2022-07-29T23:08:19.440Z,3.88
2022-07-29T23:10:46.904Z,3.17
2022-07-29T23:13:14.041Z,3.50
2022-07-29T23:15:40.996Z,4.30
2022-07-29T23:18:07.997Z,3.97
2022-07-29T23:20:34.961Z,4.15
2022-07-29T23:23:01.989Z,4.15
2022-07-29T23:25:28.958Z,4.22
2022-07-29T23:27:55.812Z,4.55
2022-07-29T23:30:22.811Z,4.80
2022-07-29T23:32:50.026Z,4.60
2022-07-29T23:35:16.892Z,4.43
2022-07-29T23:37:43.878Z,4.70
2022-07-29T23:40:14.231Z,4.90
2022-07-29T23:42:42.370Z,5.85
2022-07-29T23:45:09.753Z,5.22
2022-07-29T23:47:36.633Z,5.60
2022-07-29T23:50:04.233Z,5.35
2022-07-29T23:52:31.118Z,5.60
2022-07-29T23:55:38.885Z,5.45
2022-07-29T23:57:45.009Z,5.38
